Time;durP1;ratioP1;P1;durP2;ratioP2;P2;SDS_P1;SDS_P2;PMS_P1;PMS_P2;Temp;Humidity;BMP_temperature;BMP_pressure;BME280_temperature;BME280_humidity;BME280_pressure;Samples;Min_cycle;Max_cycle;Signal;HPM_P1;HPM_P2
2022/04/04 00:02:31;;;;;;;12.38;1.90;;;;;;;;;;5110051;28;20040;-75
2022/04/04 00:05:01;;;;;;;7.43;1.70;;;;;;;;;;5109458;28;20529;-75
2022/04/04 00:07:32;;;;;;;7.63;1.60;;;;;;;;;;5110266;28;20051;-76
2022/04/04 00:10:02;;;;;;;8.05;1.52;;;;;;;;;;5102682;28;20048;-76
2022/04/04 00:12:32;;;;;;;4.05;1.65;;;;;;;;;;5096583;28;20043;-76
2022/04/04 00:15:02;;;;;;;3.55;1.33;;;;;;;;;;5097646;28;20051;-75
2022/04/04 00:17:32;;;;;;;5.05;1.70;;;;;;;;;;5103068;28;20498;-74
2022/04/04 00:20:04;;;;;;;;;;;;;;;;;;5079608;28;20082;-75
2022/04/04 00:22:35;;;;;;;;;;;;;;;;;;5109216;28;19927;-75
2022/04/04 00:25:05;;;;;;;18.38;2.08;;;;;;;;;;5097755;28;19919;-74
2022/04/04 00:27:36;;;;;;;12.07;1.60;;;;;;;;;;5100833;28;20044;-77
2022/04/04 00:30:07;;;;;;;3.72;1.00;;;;;;;;;;5098433;28;20062;-76
2022/04/04 00:32:38;;;;;;;5.72;1.08;;;;;;;;;;5097304;28;20048;-75
2022/04/04 00:35:08;;;;;;;7.07;1.40;;;;;;;;;;5098593;28;20502;-76
2022/04/04 00:37:39;;;;;;;7.38;1.38;;;;;;;;;;5108656;28;20035;-75
2022/04/04 00:40:09;;;;;;;3.55;1.20;;;;;;;;;;5099194;28;20649;-75
2022/04/04 00:42:40;;;;;;;5.85;1.67;;;;;;;;;;5107450;28;20966;-74
2022/04/04 00:45:10;;;;;;;9.85;1.80;;;;;;;;;;5084862;28;20048;-76
2022/04/04 00:47:41;;;;;;;7.85;1.88;;;;;;;;;;5100957;28;20062;-77
2022/04/04 00:50:11;;;;;;;7.35;1.60;;;;;;;;;;5078524;28;20438;-79
2022/04/04 00:52:42;;;;;;;25.00;3.35;;;;;;;;;;5099461;27;20102;-77
2022/04/04 00:55:12;;;;;;;17.73;1.92;;;;;;;;;;5068444;28;20048;-77
2022/04/04 00:57:42;;;;;;;15.98;2.10;;;;;;;;;;5086140;28;20514;-76
2022/04/04 01:00:13;;;;;;;22.90;1.60;;;;;;;;;;5097833;28;20051;-76
2022/04/04 01:02:44;;;;;;;12.52;1.42;;;;;;;;;;5087477;28;20055;-77
2022/04/04 01:05:14;;;;;;;;;;;;;;;;;;5106740;28;20047;-76
2022/04/04 01:07:44;;;;;;;3.40;1.25;;;;;;;;;;5108187;28;20394;-78
2022/04/04 01:10:14;;;;;;;3.80;1.20;;;;;;;;;;5107302;28;20047;-79
2022/04/04 01:12:54;;;;;;;4.78;0.82;;;;;;;;;;5106202;28;20058;-76
2022/04/04 01:15:32;;;;;;;16.33;1.60;;;;;;;;;;5106892;28;20051;-75
2022/04/04 01:18:05;;;;;;;17.25;1.45;;;;;;;;;;5107786;28;20055;-76
2022/04/04 01:20:36;;;;;;;14.43;1.05;;;;;;;;;;5106628;28;20067;-76
2022/04/04 01:23:07;;;;;;;5.68;0.77;;;;;;;;;;5108862;28;20048;-78
2022/04/04 01:25:37;;;;;;;7.70;0.80;;;;;;;;;;5108792;28;20410;-76
2022/04/04 01:28:07;;;;;;;3.53;0.70;;;;;;;;;;5107600;28;20047;-77
2022/04/04 01:30:38;;;;;;;10.32;0.80;;;;;;;;;;5108077;28;20043;-78
2022/04/04 01:33:08;;;;;;;;;;;;;;;;;;5106523;28;20051;-77
2022/04/04 01:35:38;;;;;;;9.05;0.50;;;;;;;;;;5108086;28;19923;-77
2022/04/04 01:38:08;;;;;;;5.63;0.52;;;;;;;;;;5107042;28;20156;-77
2022/04/04 01:40:38;;;;;;;1.47;0.60;;;;;;;;;;5107532;28;20528;-78
2022/04/04 01:43:09;;;;;;;4.18;0.75;;;;;;;;;;5107733;28;20051;-77
2022/04/04 01:48:34;;;;;;;8.15;0.50;;;;;;;;;;5108405;28;20055;-78
2022/04/04 01:51:04;;;;;;;6.10;0.70;;;;;;;;;;5107864;28;20051;-78
2022/04/04 01:53:36;;;;;;;4.70;0.75;;;;;;;;;;5107631;28;20043;-78
2022/04/04 01:56:07;;;;;;;3.42;0.63;;;;;;;;;;5090171;28;20054;-77
2022/04/04 01:58:38;;;;;;;3.80;0.73;;;;;;;;;;5090032;28;20031;-76
2022/04/04 02:01:19;;;;;;;3.92;0.50;;;;;;;;;;5089399;28;20051;-77
2022/04/04 02:03:55;;;;;;;4.30;0.65;;;;;;;;;;5107005;28;20040;-77
2022/04/04 02:06:25;;;;;;;1.75;0.63;;;;;;;;;;5107070;28;20540;-78
2022/04/04 02:08:55;;;;;;;5.72;1.08;;;;;;;;;;5107330;28;20522;-77
2022/04/04 02:11:25;;;;;;;1.67;0.68;;;;;;;;;;5108681;28;20251;-77
2022/04/04 02:13:56;;;;;;;5.95;0.90;;;;;;;;;;5107100;28;20051;-77
2022/04/04 02:16:26;;;;;;;7.10;0.70;;;;;;;;;;5106334;28;20059;-77
2022/04/04 02:18:56;;;;;;;2.63;0.60;;;;;;;;;;5107242;28;20051;-77
2022/04/04 02:21:26;;;;;;;1.38;0.63;;;;;;;;;;5107364;28;20051;-76
2022/04/04 02:23:57;;;;;;;11.10;1.48;;;;;;;;;;5106386;28;20055;-76
2022/04/04 02:26:28;;;;;;;6.38;0.80;;;;;;;;;;5105747;28;20065;-77
2022/04/04 02:28:58;;;;;;;6.43;0.90;;;;;;;;;;5105396;28;20055;-76
2022/04/04 02:31:28;;;;;;;6.50;0.88;;;;;;;;;;5106792;28;20062;-76
2022/04/04 02:33:59;;;;;;;8.70;0.88;;;;;;;;;;5107122;28;20426;-78
2022/04/04 02:36:29;;;;;;;3.60;0.50;;;;;;;;;;5106504;28;20050;-75
2022/04/04 02:39:00;;;;;;;4.68;0.70;;;;;;;;;;5106981;28;20391;-77
2022/04/04 02:41:30;;;;;;;6.70;1.02;;;;;;;;;;5107222;28;20047;-77
2022/04/04 02:44:00;;;;;;;6.22;0.75;;;;;;;;;;5088426;28;20070;-78
2022/04/04 02:46:31;;;;;;;1.50;1.00;;;;;;;;;;5107572;28;20039;-75
2022/04/04 02:49:02;;;;;;;7.60;1.20;;;;;;;;;;5106473;28;20047;-77
2022/04/04 02:51:33;;;;;;;10.35;0.90;;;;;;;;;;5107167;28;20505;-77
2022/04/04 02:54:04;;;;;;;1.35;0.82;;;;;;;;;;5107109;28;20047;-77
2022/04/04 02:56:36;;;;;;;8.13;1.20;;;;;;;;;;5107019;28;20051;-77
2022/04/04 02:59:07;;;;;;;6.88;1.10;;;;;;;;;;5106435;28;20044;-77
2022/04/04 03:01:38;;;;;;;2.78;1.10;;;;;;;;;;5106717;28;20521;-77
2022/04/04 03:04:08;;;;;;;6.65;1.13;;;;;;;;;;5107162;28;20036;-76
2022/04/04 03:06:38;;;;;;;5.05;1.15;;;;;;;;;;5107106;28;20040;-76
2022/04/04 03:09:08;;;;;;;8.10;1.42;;;;;;;;;;5106876;28;20054;-76
2022/04/04 03:11:38;;;;;;;6.75;1.98;;;;;;;;;;5089140;28;20054;-76
2022/04/04 03:14:09;;;;;;;5.13;1.33;;;;;;;;;;5106732;28;20051;-76
2022/04/04 03:16:39;;;;;;;4.00;1.42;;;;;;;;;;5106619;28;20418;-76
2022/04/04 03:19:09;;;;;;;4.30;1.52;;;;;;;;;;5106370;28;20043;-76
2022/04/04 03:21:40;;;;;;;2.47;1.40;;;;;;;;;;5107041;28;20072;-76
2022/04/04 03:24:13;;;;;;;3.72;1.40;;;;;;;;;;5106126;28;20506;-75
2022/04/04 03:26:43;;;;;;;4.65;1.60;;;;;;;;;;5106110;28;20047;-76
2022/04/04 03:29:13;;;;;;;4.72;1.65;;;;;;;;;;5106545;28;20051;-75
2022/04/04 03:31:43;;;;;;;2.85;1.52;;;;;;;;;;5106741;28;20039;-77
2022/04/04 03:34:13;;;;;;;4.95;1.50;;;;;;;;;;5110475;28;20052;-77
2022/04/04 03:36:43;;;;;;;4.97;1.70;;;;;;;;;;5110733;28;20043;-77
2022/04/04 03:39:16;;;;;;;4.88;1.48;;;;;;;;;;5109717;28;20047;-76
2022/04/04 03:41:46;;;;;;;3.45;1.60;;;;;;;;;;5107776;28;20181;-75
2022/04/04 03:44:16;;;;;;;13.93;1.55;;;;;;;;;;5091769;28;20856;-75
2022/04/04 03:46:46;;;;;;;8.30;1.50;;;;;;;;;;5109911;28;20055;-77
2022/04/04 03:49:16;;;;;;;2.70;1.38;;;;;;;;;;5110040;28;20047;-78
2022/04/04 03:51:46;;;;;;;3.22;1.50;;;;;;;;;;5110083;28;20048;-76
2022/04/04 03:54:16;;;;;;;6.20;1.35;;;;;;;;;;5110124;28;20155;-76
2022/04/04 03:56:46;;;;;;;4.25;1.30;;;;;;;;;;5109899;28;20040;-75
2022/04/04 03:59:16;;;;;;;7.22;1.20;;;;;;;;;;5109727;28;20050;-76
2022/04/04 04:01:46;;;;;;;2.88;1.13;;;;;;;;;;5109131;28;20040;-77
2022/04/04 04:04:16;;;;;;;1.95;1.00;;;;;;;;;;5109747;28;20062;-75
2022/04/04 04:06:46;;;;;;;3.45;1.20;;;;;;;;;;5110066;28;20168;-76
2022/04/04 04:09:18;;;;;;;2.75;1.20;;;;;;;;;;5109222;28;20051;-79
2022/04/04 04:11:48;;;;;;;5.75;1.20;;;;;;;;;;5090949;28;20406;-76
2022/04/04 04:14:19;;;;;;;3.13;1.40;;;;;;;;;;5109685;28;20417;-77
2022/04/04 04:16:50;;;;;;;4.22;1.20;;;;;;;;;;5109578;28;20043;-78
2022/04/04 04:22:08;;;;;;;1.17;0.98;;;;;;;;;;5109027;28;20048;-77
2022/04/04 04:24:38;;;;;;;2.65;1.02;;;;;;;;;;5109299;28;20052;-75
2022/04/04 04:27:08;;;;;;;7.32;1.23;;;;;;;;;;5109034;28;20054;-77
2022/04/04 04:29:38;;;;;;;4.55;0.90;;;;;;;;;;5109212;28;20047;-76
2022/04/04 04:32:14;;;;;;;3.83;1.10;;;;;;;;;;5108859;28;20059;-76
2022/04/04 04:34:46;;;;;;;4.57;0.80;;;;;;;;;;5108996;28;20058;-76
2022/04/04 04:37:18;;;;;;;1.58;1.08;;;;;;;;;;5109540;28;20058;-74
2022/04/04 04:39:49;;;;;;;3.88;1.10;;;;;;;;;;5108473;28;20377;-77
2022/04/04 04:42:19;;;;;;;1.98;1.00;;;;;;;;;;5109313;28;20672;-76
2022/04/04 04:44:50;;;;;;;2.50;1.15;;;;;;;;;;5108374;28;20047;-76
2022/04/04 04:47:19;;;;;;;1.92;0.80;;;;;;;;;;5108807;28;20058;-75
2022/04/04 04:49:50;;;;;;;1.55;0.77;;;;;;;;;;5107571;28;20510;-76
2022/04/04 04:52:20;;;;;;;3.25;0.70;;;;;;;;;;5108677;28;20062;-76
2022/04/04 04:54:50;;;;;;;2.55;0.82;;;;;;;;;;5108627;28;20052;-76
2022/04/04 04:57:20;;;;;;;2.58;0.85;;;;;;;;;;5109153;28;20055;-77
2022/04/04 04:59:50;;;;;;;1.90;0.80;;;;;;;;;;5108410;28;20485;-76
2022/04/04 05:02:20;;;;;;;3.15;1.00;;;;;;;;;;5108380;28;20051;-77
2022/04/04 05:04:50;;;;;;;3.40;0.80;;;;;;;;;;5109040;28;20391;-76
2022/04/04 05:07:20;;;;;;;5.32;1.00;;;;;;;;;;5090234;28;20055;-76
2022/04/04 05:09:50;;;;;;;3.17;0.88;;;;;;;;;;5107995;28;20051;-76
2022/04/04 05:12:20;;;;;;;2.78;0.80;;;;;;;;;;5108297;28;20047;-76
2022/04/04 05:14:50;;;;;;;2.53;0.70;;;;;;;;;;5109475;28;20050;-77
2022/04/04 05:17:19;;;;;;;4.80;0.85;;;;;;;;;;5108201;28;20044;-77
2022/04/04 05:19:49;;;;;;;2.47;0.88;;;;;;;;;;5107837;28;20052;-76
2022/04/04 05:22:19;;;;;;;1.60;0.90;;;;;;;;;;5108524;28;20039;-77
2022/04/04 05:24:49;;;;;;;0.77;0.70;;;;;;;;;;5108373;28;20050;-76
2022/04/04 05:27:19;;;;;;;6.75;0.88;;;;;;;;;;5108577;28;20052;-76
2022/04/04 05:29:49;;;;;;;7.20;0.90;;;;;;;;;;5107863;28;20050;-77
2022/04/04 05:32:19;;;;;;;3.33;0.90;;;;;;;;;;5107925;28;20051;-77
2022/04/04 05:34:50;;;;;;;2.95;0.70;;;;;;;;;;5108125;28;20048;-76
2022/04/04 05:37:20;;;;;;;5.90;1.00;;;;;;;;;;5107721;28;20047;-76
2022/04/04 05:39:50;;;;;;;3.25;0.80;;;;;;;;;;5107811;28;20052;-77
2022/04/04 05:42:19;;;;;;;0.93;0.73;;;;;;;;;;5089591;28;20047;-77
2022/04/04 05:44:49;;;;;;;1.48;0.75;;;;;;;;;;5106013;28;20426;-76
2022/04/04 05:47:20;;;;;;;2.45;0.68;;;;;;;;;;5107570;28;20414;-76
2022/04/04 05:49:50;;;;;;;0.70;0.70;;;;;;;;;;5108125;28;20084;-76
2022/04/04 05:52:25;;;;;;;4.22;0.70;;;;;;;;;;5089600;28;20047;-75
2022/04/04 05:54:59;;;;;;;0.50;0.50;;;;;;;;;;5106812;28;20446;-76
2022/04/04 05:57:32;;;;;;;1.20;0.60;;;;;;;;;;5107178;28;20047;-77
2022/04/04 06:00:04;;;;;;;4.90;0.80;;;;;;;;;;5107525;28;20059;-76
2022/04/04 06:02:38;;;;;;;0.82;0.82;;;;;;;;;;5108684;28;20548;-76
2022/04/04 06:05:09;;;;;;;5.53;0.80;;;;;;;;;;5107354;28;20048;-77
2022/04/04 06:07:41;;;;;;;0.65;0.60;;;;;;;;;;5107693;28;20047;-76
2022/04/04 06:10:13;;;;;;;1.70;0.55;;;;;;;;;;5089962;28;20387;-78
2022/04/04 06:12:44;;;;;;;3.25;0.75;;;;;;;;;;5107733;28;20048;-77
2022/04/04 06:15:16;;;;;;;0.68;0.68;;;;;;;;;;5107579;28;20498;-75
2022/04/04 06:17:47;;;;;;;2.70;0.85;;;;;;;;;;5107117;28;20066;-76
2022/04/04 06:20:17;;;;;;;2.40;0.93;;;;;;;;;;5089367;28;20506;-77
2022/04/04 06:22:47;;;;;;;8.68;0.80;;;;;;;;;;5106899;28;20051;-76
2022/04/04 06:25:17;;;;;;;2.80;0.80;;;;;;;;;;5107150;28;20050;-76
2022/04/04 06:27:47;;;;;;;1.52;0.90;;;;;;;;;;5107277;28;20044;-76
2022/04/04 06:30:21;;;;;;;3.17;0.80;;;;;;;;;;5107000;28;20055;-76
2022/04/04 06:33:48;;;;;;;3.50;0.83;;;;;;;;;;5107848;28;20048;-77
2022/04/04 06:36:21;;;;;;;16.25;1.00;;;;;;;;;;5106985;28;20040;-77
2022/04/04 06:38:51;;;;;;;3.20;0.90;;;;;;;;;;5106462;28;20039;-74
2022/04/04 06:41:21;;;;;;;1.43;0.90;;;;;;;;;;5106698;28;20084;-75
2022/04/04 06:43:52;;;;;;;2.80;0.70;;;;;;;;;;5107185;28;20048;-76
2022/04/04 06:46:22;;;;;;;6.40;0.95;;;;;;;;;;5088652;28;20043;-75
2022/04/04 06:48:53;;;;;;;1.00;0.90;;;;;;;;;;5106402;28;20134;-75
2022/04/04 06:51:23;;;;;;;6.75;0.88;;;;;;;;;;5107015;28;20039;-75
2022/04/04 06:53:53;;;;;;;4.25;1.20;;;;;;;;;;5106874;28;20051;-76
2022/04/04 06:56:23;;;;;;;8.88;1.00;;;;;;;;;;5106641;28;20054;-75
2022/04/04 06:58:53;;;;;;;4.45;0.82;;;;;;;;;;5106617;28;20414;-77
2022/04/04 07:01:23;;;;;;;5.15;1.00;;;;;;;;;;5106634;28;20048;-76
2022/04/04 07:03:53;;;;;;;4.00;1.08;;;;;;;;;;5107053;28;20048;-76
2022/04/04 07:06:23;;;;;;;1.85;1.13;;;;;;;;;;5107556;28;20050;-78
2022/04/04 07:08:53;;;;;;;1.40;0.70;;;;;;;;;;5110926;28;20044;-75
2022/04/04 07:11:23;;;;;;;4.60;1.35;;;;;;;;;;5110441;28;20055;-77
2022/04/04 07:13:53;;;;;;;2.97;1.20;;;;;;;;;;5110678;28;20058;-77
2022/04/04 07:16:24;;;;;;;2.45;1.10;;;;;;;;;;5110983;28;20059;-75
2022/04/04 07:18:55;;;;;;;2.95;0.90;;;;;;;;;;5111128;28;20523;-76
2022/04/04 07:21:28;;;;;;;2.72;0.95;;;;;;;;;;5111209;28;20635;-76
2022/04/04 07:23:58;;;;;;;2.10;1.20;;;;;;;;;;5110721;28;20043;-77
2022/04/04 07:26:29;;;;;;;1.10;1.00;;;;;;;;;;5110750;28;20414;-77
2022/04/04 07:28:59;;;;;;;1.50;1.00;;;;;;;;;;5091601;28;20056;-78
2022/04/04 07:31:29;;;;;;;3.33;0.90;;;;;;;;;;5110274;28;20509;-77
2022/04/04 07:33:59;;;;;;;1.40;0.90;;;;;;;;;;5110239;28;20051;-76
2022/04/04 07:36:30;;;;;;;1.50;0.90;;;;;;;;;;5110194;28;20418;-76
2022/04/04 07:39:01;;;;;;;2.42;1.10;;;;;;;;;;5110427;28;20047;-75
2022/04/04 07:41:31;;;;;;;3.38;0.98;;;;;;;;;;5110268;28;20080;-75
2022/04/04 07:44:01;;;;;;;1.20;1.00;;;;;;;;;;5110494;28;20050;-76
2022/04/04 07:46:31;;;;;;;4.95;1.25;;;;;;;;;;5111575;28;20402;-76
2022/04/04 07:49:02;;;;;;;;;;;;;;;;;;5114051;28;20043;-77
2022/04/04 07:51:32;;;;;;;0.98;0.80;;;;;;;;;;5110271;28;19947;-76
2022/04/04 07:54:02;;;;;;;5.75;1.17;;;;;;;;;;5110875;28;20114;-76
2022/04/04 07:56:32;;;;;;;5.63;1.05;;;;;;;;;;5110232;28;20047;-77
2022/04/04 07:59:02;;;;;;;2.88;0.88;;;;;;;;;;5110916;28;20047;-77
2022/04/04 08:01:35;;;;;;;4.50;0.93;;;;;;;;;;5119003;28;20046;-76
2022/04/04 08:04:12;;;;;;;8.18;0.80;;;;;;;;;;5135998;28;20124;-77
2022/04/04 08:06:42;;;;;;;1.95;0.90;;;;;;;;;;5136034;28;20028;-76
2022/04/04 08:09:11;;;;;;;5.43;1.10;;;;;;;;;;5135032;28;20008;-76
2022/04/04 08:11:41;;;;;;;5.03;1.20;;;;;;;;;;5136031;28;20048;-77
2022/04/04 08:14:11;;;;;;;6.55;1.08;;;;;;;;;;5129712;28;20043;-76
2022/04/04 08:16:41;;;;;;;2.38;1.10;;;;;;;;;;5110396;28;20075;-76
2022/04/04 08:19:13;;;;;;;4.30;0.80;;;;;;;;;;5109529;28;20066;-77
2022/04/04 08:21:45;;;;;;;14.70;1.58;;;;;;;;;;5091896;28;20066;-75
2022/04/04 08:24:16;;;;;;;5.07;1.00;;;;;;;;;;5110087;28;20044;-77
2022/04/04 08:26:46;;;;;;;14.43;1.27;;;;;;;;;;5109416;28;20066;-74
2022/04/04 08:29:17;;;;;;;10.90;2.13;;;;;;;;;;5108694;28;20056;-77
2022/04/04 08:31:47;;;;;;;2.88;0.75;;;;;;;;;;5109344;28;20039;-75
2022/04/04 08:34:17;;;;;;;5.30;0.88;;;;;;;;;;5109125;28;20509;-74
2022/04/04 08:36:47;;;;;;;4.72;1.10;;;;;;;;;;5109694;28;20054;-77
2022/04/04 08:39:17;;;;;;;2.53;0.95;;;;;;;;;;5109194;28;20047;-77
2022/04/04 08:41:47;;;;;;;11.05;1.25;;;;;;;;;;5091306;28;20051;-76
2022/04/04 08:44:17;;;;;;;1.48;0.88;;;;;;;;;;5109699;28;20052;-74
2022/04/04 08:46:47;;;;;;;4.30;1.00;;;;;;;;;;5090160;28;20494;-75
2022/04/04 08:49:18;;;;;;;;;;;;;;;;;;5109581;28;20059;-77
2022/04/04 08:51:49;;;;;;;7.10;1.88;;;;;;;;;;5108997;28;19935;-76
2022/04/04 08:54:19;;;;;;;4.68;1.15;;;;;;;;;;5109290;28;20509;-74
2022/04/04 08:56:49;;;;;;;7.68;1.50;;;;;;;;;;5109421;28;20040;-76
2022/04/04 08:59:19;;;;;;;5.18;1.38;;;;;;;;;;5108931;28;20499;-76
2022/04/04 09:01:49;;;;;;;5.38;1.13;;;;;;;;;;5108488;28;20061;-76
2022/04/04 09:04:19;;;;;;;6.28;0.90;;;;;;;;;;5108503;28;20437;-76
2022/04/04 09:06:51;;;;;;;3.70;1.17;;;;;;;;;;5108903;28;20798;-75
2022/04/04 09:09:36;;;;;;;2.78;1.10;;;;;;;;;;5090864;28;20050;-77
2022/04/04 09:12:14;;;;;;;11.88;1.30;;;;;;;;;;5108739;28;20046;-75
2022/04/04 09:14:47;;;;;;;10.50;1.20;;;;;;;;;;5108925;28;20047;-78
2022/04/04 09:17:22;;;;;;;6.68;1.20;;;;;;;;;;5108495;28;20066;-75
2022/04/04 09:19:52;;;;;;;9.00;1.13;;;;;;;;;;5108523;28;20495;-75
2022/04/04 09:22:23;;;;;;;10.80;1.67;;;;;;;;;;5108051;28;20403;-74
2022/04/04 09:24:57;;;;;;;;;;;;;;;;;;5108630;28;20059;-75
2022/04/04 09:27:36;;;;;;;3.13;1.80;;;;;;;;;;5108413;28;19974;-75
2022/04/04 09:30:08;;;;;;;6.72;1.10;;;;;;;;;;5108477;28;20054;-75
2022/04/04 09:32:41;;;;;;;6.03;1.42;;;;;;;;;;5090499;28;20059;-76
2022/04/04 09:35:14;;;;;;;5.60;1.45;;;;;;;;;;5108139;28;20501;-76
2022/04/04 09:37:48;;;;;;;3.85;1.08;;;;;;;;;;5108231;28;20044;-74
2022/04/04 09:40:32;;;;;;;2.83;1.35;;;;;;;;;;5107656;28;20050;-75
2022/04/04 09:43:02;;;;;;;1.35;1.25;;;;;;;;;;5089857;28;20402;-74
2022/04/04 09:45:32;;;;;;;4.47;1.27;;;;;;;;;;5107757;28;20050;-75
2022/04/04 09:48:11;;;;;;;6.03;1.35;;;;;;;;;;5107553;28;20462;-75
2022/04/04 09:50:47;;;;;;;7.40;1.10;;;;;;;;;;5107930;28;20039;-76
2022/04/04 09:53:19;;;;;;;4.53;1.13;;;;;;;;;;5108120;28;20055;-76
2022/04/04 09:55:52;;;;;;;6.65;1.80;;;;;;;;;;5107597;28;20054;-76
2022/04/04 09:58:23;;;;;;;4.88;2.10;;;;;;;;;;5107109;28;20051;-75
2022/04/04 10:00:54;;;;;;;;;;;;;;;;;;5108650;28;20043;-74
2022/04/04 10:03:25;;;;;;;6.35;1.63;;;;;;;;;;5107732;28;19920;-76
2022/04/04 10:06:00;;;;;;;5.95;2.45;;;;;;;;;;5107803;28;20044;-75
2022/04/04 10:08:33;;;;;;;5.60;2.45;;;;;;;;;;5107455;28;20062;-75
2022/04/04 10:11:07;;;;;;;5.88;4.47;;;;;;;;;;5088961;28;20407;-73
2022/04/04 10:13:37;;;;;;;14.05;5.63;;;;;;;;;;5107001;28;20057;-75
2022/04/04 10:16:10;;;;;;;8.90;4.85;;;;;;;;;;5107304;28;20521;-77
2022/04/04 10:18:46;;;;;;;9.93;5.18;;;;;;;;;;5107831;28;20509;-77
2022/04/04 10:21:18;;;;;;;15.55;6.10;;;;;;;;;;5106954;28;20047;-77
2022/04/04 10:23:54;;;;;;;9.70;5.88;;;;;;;;;;5107745;28;20494;-76
2022/04/04 10:26:32;;;;;;;8.50;5.63;;;;;;;;;;5106468;28;20042;-75
2022/04/04 10:29:15;;;;;;;10.77;5.35;;;;;;;;;;5107023;28;20043;-76
2022/04/04 10:31:51;;;;;;;12.57;5.38;;;;;;;;;;5107799;28;20052;-78
2022/04/04 10:34:25;;;;;;;10.65;4.90;;;;;;;;;;5107142;28;20092;-78
2022/04/04 10:36:57;;;;;;;7.20;4.40;;;;;;;;;;5108601;28;20047;-76
2022/04/04 10:39:44;;;;;;;10.77;5.20;;;;;;;;;;5106726;28;20052;-75
2022/04/04 10:42:33;;;;;;;15.18;5.85;;;;;;;;;;5107396;28;20048;-76
2022/04/04 10:45:12;;;;;;;13.05;5.40;;;;;;;;;;5091654;28;20043;-76
2022/04/04 10:47:44;;;;;;;5.97;4.32;;;;;;;;;;5106961;28;20041;-76
2022/04/04 10:50:24;;;;;;;7.88;4.47;;;;;;;;;;5106910;28;20051;-77
2022/04/04 10:52:59;;;;;;;6.90;3.80;;;;;;;;;;5106881;28;20052;-76
2022/04/04 10:55:38;;;;;;;5.47;3.75;;;;;;;;;;5107134;28;20212;-77
2022/04/04 10:58:19;;;;;;;13.18;9.68;;;;;;;;;;5106751;28;20046;-77
2022/04/04 11:01:14;;;;;;;10.48;4.90;;;;;;;;;;5107311;28;20044;-76
2022/04/04 11:03:53;;;;;;;6.28;3.88;;;;;;;;;;5106782;28;20040;-76
2022/04/04 11:09:36;;;;;;;3.65;3.13;;;;;;;;;;5107311;28;20055;-77
2022/04/04 11:12:14;;;;;;;6.82;3.50;;;;;;;;;;5107167;28;20050;-75
2022/04/04 11:14:53;;;;;;;6.60;3.63;;;;;;;;;;5087757;28;20051;-78
2022/04/04 11:17:38;;;;;;;11.52;3.78;;;;;;;;;;5107033;28;20054;-76
2022/04/04 11:20:33;;;;;;;6.82;3.50;;;;;;;;;;5106429;28;20502;-76
2022/04/04 11:23:10;;;;;;;7.65;3.28;;;;;;;;;;5106587;28;20047;-77
2022/04/04 11:25:54;;;;;;;9.70;4.25;;;;;;;;;;5107252;28;20048;-76
2022/04/04 11:28:30;;;;;;;13.48;3.60;;;;;;;;;;5107055;28;20050;-79
2022/04/04 11:31:08;;;;;;;6.03;3.22;;;;;;;;;;5105567;28;20062;-76
2022/04/04 11:33:51;;;;;;;8.73;4.55;;;;;;;;;;5106256;28;20543;-77
2022/04/04 11:36:27;;;;;;;4.15;2.92;;;;;;;;;;5105746;28;20039;-76
2022/04/04 11:39:03;;;;;;;5.07;2.90;;;;;;;;;;5106903;28;20051;-76
2022/04/04 11:41:46;;;;;;;3.58;2.95;;;;;;;;;;5106242;28;20047;-75
2022/04/04 11:44:46;;;;;;;5.05;2.90;;;;;;;;;;5106459;28;20421;-76
2022/04/04 11:47:17;;;;;;;5.28;2.67;;;;;;;;;;5106549;28;20043;-77
2022/04/04 11:49:49;;;;;;;10.65;3.33;;;;;;;;;;5106581;28;20047;-76
2022/04/04 11:52:23;;;;;;;3.03;2.72;;;;;;;;;;5107018;28;20036;-76
2022/04/04 11:54:54;;;;;;;4.45;2.90;;;;;;;;;;5109954;28;20055;-77
2022/04/04 11:57:25;;;;;;;6.35;2.88;;;;;;;;;;5110443;28;20421;-76
2022/04/04 11:59:56;;;;;;;6.47;2.35;;;;;;;;;;5109886;28;20497;-77
2022/04/04 12:02:31;;;;;;;3.60;2.90;;;;;;;;;;5110013;28;20863;-77
2022/04/04 12:05:02;;;;;;;3.97;2.85;;;;;;;;;;5109741;28;20044;-77
2022/04/04 12:07:33;;;;;;;3.67;2.67;;;;;;;;;;5109481;28;20201;-77
2022/04/04 12:10:04;;;;;;;3.75;2.78;;;;;;;;;;5108074;28;20055;-76
2022/04/04 12:12:35;;;;;;;6.65;2.83;;;;;;;;;;5110021;28;20046;-78
2022/04/04 12:15:06;;;;;;;4.97;2.65;;;;;;;;;;5090995;28;20048;-77
2022/04/04 12:17:37;;;;;;;6.03;2.33;;;;;;;;;;5109696;28;20070;-77
2022/04/04 12:20:11;;;;;;;7.13;2.38;;;;;;;;;;5109107;28;20498;-77
2022/04/04 12:25:30;;;;;;;5.32;2.00;;;;;;;;;;5109633;28;20047;-77
2022/04/04 12:28:01;;;;;;;5.30;1.65;;;;;;;;;;5109000;28;20842;-77
2022/04/04 12:30:37;;;;;;;4.60;1.60;;;;;;;;;;5089971;28;20434;-77
2022/04/04 12:33:12;;;;;;;3.95;1.63;;;;;;;;;;5108500;28;20062;-77
2022/04/04 12:35:47;;;;;;;6.55;1.92;;;;;;;;;;5109608;28;20055;-76
2022/04/04 12:38:29;;;;;;;7.47;1.90;;;;;;;;;;5110128;28;20044;-79
2022/04/04 12:41:09;;;;;;;5.68;2.22;;;;;;;;;;5108986;28;20048;-76
2022/04/04 12:44:00;;;;;;;8.05;1.92;;;;;;;;;;5109359;28;20051;-76
2022/04/04 12:46:32;;;;;;;3.57;2.00;;;;;;;;;;5109043;28;20051;-78
2022/04/04 12:49:15;;;;;;;2.65;1.95;;;;;;;;;;5107649;28;20374;-79
2022/04/04 12:51:58;;;;;;;3.58;2.30;;;;;;;;;;5108242;28;20051;-76
2022/04/04 12:54:32;;;;;;;5.05;2.53;;;;;;;;;;5109276;28;20661;-74
2022/04/04 12:57:05;;;;;;;11.02;2.38;;;;;;;;;;5108156;28;20498;-75
2022/04/04 12:59:54;;;;;;;7.68;3.00;;;;;;;;;;5108299;28;20063;-75
2022/04/04 13:02:34;;;;;;;6.10;3.10;;;;;;;;;;5109197;28;20055;-75
2022/04/04 13:05:14;;;;;;;2.00;1.90;;;;;;;;;;5108942;28;20066;-75
2022/04/04 13:07:56;;;;;;;3.03;2.70;;;;;;;;;;5105277;28;20043;-73
2022/04/04 13:10:28;;;;;;;7.95;2.63;;;;;;;;;;5105389;28;20745;-75
2022/04/04 13:13:12;;;;;;;3.60;1.83;;;;;;;;;;5104814;28;20387;-74
2022/04/04 13:15:47;;;;;;;5.60;2.60;;;;;;;;;;5107882;28;20054;-73
2022/04/04 13:18:37;;;;;;;1.92;1.83;;;;;;;;;;5108306;28;20047;-74
2022/04/04 13:24:09;;;;;;;;;;;;;;;;;;5107943;28;20059;-74
2022/04/04 13:26:39;;;;;;;4.50;2.10;;;;;;;;;;5105197;28;20397;-74
2022/04/04 13:29:11;;;;;;;6.78;2.40;;;;;;;;;;5107744;28;20048;-75
2022/04/04 13:31:43;;;;;;;2.47;2.28;;;;;;;;;;5107215;28;20501;-76
2022/04/04 13:34:13;;;;;;;4.88;2.45;;;;;;;;;;5107326;28;20048;-76
2022/04/04 13:36:44;;;;;;;8.70;2.67;;;;;;;;;;5107805;28;20059;-76
2022/04/04 13:39:14;;;;;;;3.42;2.05;;;;;;;;;;5106877;28;20051;-76
2022/04/04 13:41:43;;;;;;;3.65;2.47;;;;;;;;;;5108048;28;20046;-77
2022/04/04 13:44:13;;;;;;;3.60;2.22;;;;;;;;;;5107774;28;20686;-76
2022/04/04 13:46:43;;;;;;;2.30;2.10;;;;;;;;;;5107414;28;20038;-76
2022/04/04 13:49:13;;;;;;;3.65;2.95;;;;;;;;;;5108063;28;20046;-76
2022/04/04 13:51:44;;;;;;;5.30;2.55;;;;;;;;;;5107045;28;20047;-76
2022/04/04 13:54:14;;;;;;;4.13;2.08;;;;;;;;;;5106903;28;20063;-75
2022/04/04 13:56:47;;;;;;;7.00;2.72;;;;;;;;;;5106018;28;20074;-76
2022/04/04 13:59:21;;;;;;;6.05;3.25;;;;;;;;;;5101151;28;20052;-76
2022/04/04 14:01:50;;;;;;;2.10;1.90;;;;;;;;;;5092867;28;20051;-74
2022/04/04 14:04:20;;;;;;;2.35;1.90;;;;;;;;;;5085888;28;20064;-74
2022/04/04 14:06:50;;;;;;;5.05;1.80;;;;;;;;;;5086551;28;20415;-75
2022/04/04 14:09:21;;;;;;;2.22;1.73;;;;;;;;;;5087035;28;20051;-75
2022/04/04 14:11:50;;;;;;;7.30;1.80;;;;;;;;;;5086891;28;20048;-75
2022/04/04 14:14:22;;;;;;;2.45;1.30;;;;;;;;;;5087651;28;20052;-74
2022/04/04 14:16:52;;;;;;;5.43;1.75;;;;;;;;;;5085484;28;20499;-74
2022/04/04 14:19:23;;;;;;;2.42;1.55;;;;;;;;;;5086782;28;20058;-74
2022/04/04 14:21:53;;;;;;;2.07;1.50;;;;;;;;;;5086595;28;20048;-75
2022/04/04 14:24:23;;;;;;;2.70;1.50;;;;;;;;;;5086332;28;20040;-75
2022/04/04 14:26:53;;;;;;;2.95;1.40;;;;;;;;;;5086334;28;20059;-75
2022/04/04 14:29:23;;;;;;;4.10;1.60;;;;;;;;;;5086209;28;20044;-75
2022/04/04 14:31:53;;;;;;;6.57;1.35;;;;;;;;;;5087047;28;20047;-75
2022/04/04 14:34:24;;;;;;;1.55;1.45;;;;;;;;;;5086516;28;20415;-74
2022/04/04 14:36:59;;;;;;;2.63;1.60;;;;;;;;;;5086222;28;20044;-74
2022/04/04 14:39:32;;;;;;;5.95;1.50;;;;;;;;;;5086496;28;20048;-77
2022/04/04 14:42:03;;;;;;;5.93;1.42;;;;;;;;;;5086704;28;20040;-76
2022/04/04 14:44:33;;;;;;;3.90;1.60;;;;;;;;;;5087064;28;20985;-75
2022/04/04 14:47:04;;;;;;;1.90;1.27;;;;;;;;;;5085859;28;20281;-74
2022/04/04 14:49:54;;;;;;;3.58;1.67;;;;;;;;;;5085611;28;20048;-77
2022/04/04 14:52:24;;;;;;;1.73;1.52;;;;;;;;;;5086756;28;20130;-75
2022/04/04 14:54:54;;;;;;;1.02;1.00;;;;;;;;;;5086080;28;20048;-75
2022/04/04 14:57:24;;;;;;;3.63;1.83;;;;;;;;;;5086285;28;20059;-75
2022/04/04 14:59:54;;;;;;;2.30;2.00;;;;;;;;;;5085428;28;20032;-75
2022/04/04 15:02:24;;;;;;;3.22;1.95;;;;;;;;;;5086169;28;20418;-75
2022/04/04 15:05:15;;;;;;;1.95;1.73;;;;;;;;;;5086006;28;20491;-75
2022/04/04 15:07:45;;;;;;;;;;;;;;;;;;5086128;28;20869;-75
2022/04/04 15:10:18;;;;;;;3.47;1.77;;;;;;;;;;5085886;28;19920;-74
2022/04/04 15:12:52;;;;;;;6.10;1.80;;;;;;;;;;5067062;28;20052;-75
2022/04/04 15:15:23;;;;;;;2.22;1.90;;;;;;;;;;5086829;28;20048;-74
2022/04/04 15:17:53;;;;;;;5.30;2.40;;;;;;;;;;5067755;28;20044;-76
2022/04/04 15:20:23;;;;;;;5.57;2.03;;;;;;;;;;5086477;28;20054;-75
2022/04/04 15:22:53;;;;;;;4.68;2.40;;;;;;;;;;5085426;28;20395;-74
2022/04/04 15:25:23;;;;;;;7.90;2.22;;;;;;;;;;5085995;28;20040;-74
2022/04/04 15:27:54;;;;;;;6.47;2.15;;;;;;;;;;5069666;28;20052;-75
2022/04/04 15:30:24;;;;;;;2.50;1.80;;;;;;;;;;5089955;28;20047;-75
2022/04/04 15:32:54;;;;;;;2.40;1.57;;;;;;;;;;5089777;28;20593;-75